createdAt,value
2022-10-27T00:00:33.607Z,11.15
2022-10-27T00:03:00.227Z,8.18
2022-10-27T00:05:26.890Z,6.82
2022-10-27T00:07:53.761Z,8.70
2022-10-27T00:10:20.369Z,11.50
2022-10-27T00:12:46.889Z,9.10
2022-10-27T00:15:14.353Z,9.68
2022-10-27T00:17:41.141Z,7.68
2022-10-27T00:20:08.681Z,7.63
2022-10-27T00:22:35.216Z,11.32
2022-10-27T00:25:01.894Z,8.32
2022-10-27T00:27:28.564Z,8.38
2022-10-27T00:29:55.004Z,14.10
2022-10-27T00:32:21.515Z,9.10
2022-10-27T00:34:47.919Z,14.20
2022-10-27T00:37:14.499Z,8.70
2022-10-27T00:39:40.881Z,8.93
2022-10-27T00:42:12.042Z,15.10
2022-10-27T00:44:41.125Z,7.57
2022-10-27T00:47:19.134Z,12.45
2022-10-27T00:49:57.461Z,9.15
2022-10-27T00:52:27.461Z,7.15
2022-10-27T00:54:57.097Z,10.43
2022-10-27T00:57:24.152Z,7.50
2022-10-27T00:59:50.577Z,9.55
2022-10-27T01:02:17.396Z,9.25
2022-10-27T01:04:50.885Z,10.45
2022-10-27T01:07:19.418Z,9.55
2022-10-27T01:09:46.814Z,6.87
2022-10-27T01:12:13.226Z,10.68
2022-10-27T01:14:39.939Z,9.13
2022-10-27T01:17:40.121Z,8.50
2022-10-27T01:20:27.737Z,22.42
2022-10-27T01:23:24.830Z,6.60
2022-10-27T01:26:21.650Z,16.60
2022-10-27T01:29:03.806Z,8.60
2022-10-27T01:31:36.417Z,8.30
2022-10-27T01:34:21.513Z,8.60
2022-10-27T01:37:13.650Z,7.27
2022-10-27T01:39:53.258Z,7.43
2022-10-27T01:42:32.582Z,6.65
2022-10-27T01:45:00.610Z,10.13
2022-10-27T01:47:27.421Z,6.90
2022-10-27T01:49:56.756Z,8.90
2022-10-27T01:52:43.533Z,6.55
2022-10-27T01:55:47.263Z,7.95
2022-10-27T01:58:39.772Z,7.20
2022-10-27T02:01:43.228Z,8.95
2022-10-27T02:04:18.405Z,9.03
2022-10-27T02:06:55.838Z,8.73
2022-10-27T02:09:33.899Z,5.35
2022-10-27T02:12:04.639Z,7.53
2022-10-27T02:14:31.581Z,9.52
2022-10-27T02:16:59.546Z,11.87
2022-10-27T02:19:30.173Z,9.80
2022-10-27T02:22:00.643Z,6.60
2022-10-27T02:24:28.030Z,6.95
2022-10-27T02:27:17.863Z,6.38
2022-10-27T02:29:47.837Z,7.23
2022-10-27T02:32:18.801Z,6.78
2022-10-27T02:34:47.074Z,9.13
2022-10-27T02:37:25.440Z,6.28
2022-10-27T02:39:51.973Z,8.10
2022-10-27T02:42:18.364Z,8.70
2022-10-27T02:44:44.741Z,10.52
2022-10-27T02:47:11.103Z,9.93
2022-10-27T02:49:37.476Z,12.07
2022-10-27T02:52:04.718Z,12.75
2022-10-27T02:54:31.738Z,6.63
2022-10-27T02:56:58.790Z,8.15
2022-10-27T02:59:25.532Z,8.73
2022-10-27T03:01:52.145Z,10.85
2022-10-27T03:04:18.678Z,9.85
2022-10-27T03:06:45.085Z,7.67
2022-10-27T03:09:11.457Z,8.45
2022-10-27T03:11:39.555Z,14.27
2022-10-27T03:14:07.970Z,8.55
2022-10-27T03:16:34.358Z,9.73
2022-10-27T03:19:00.749Z,9.60
2022-10-27T03:21:27.096Z,9.75
2022-10-27T03:23:53.477Z,10.05
2022-10-27T03:26:19.874Z,15.55
2022-10-27T03:28:46.242Z,20.65
2022-10-27T03:31:12.633Z,12.83
2022-10-27T03:33:38.999Z,16.27
2022-10-27T03:36:05.780Z,13.25
2022-10-27T03:38:32.258Z,11.18
2022-10-27T03:40:58.646Z,10.88
2022-10-27T03:43:25.171Z,17.73
2022-10-27T03:45:55.075Z,7.90
2022-10-27T03:48:23.645Z,7.78
2022-10-27T03:50:51.067Z,6.43
2022-10-27T03:53:18.069Z,6.40
2022-10-27T03:55:44.923Z,7.10
2022-10-27T03:58:16.829Z,6.63
2022-10-27T04:00:44.573Z,8.73
2022-10-27T04:03:11.437Z,6.57
2022-10-27T04:05:37.818Z,7.55
2022-10-27T04:08:04.285Z,5.40
2022-10-27T04:10:30.667Z,5.35
2022-10-27T04:12:57.563Z,7.35
2022-10-27T04:15:26.520Z,8.18
2022-10-27T04:17:57.595Z,7.38
2022-10-27T04:20:24.585Z,7.50
2022-10-27T04:22:51.604Z,8.52
2022-10-27T04:25:18.353Z,10.73
2022-10-27T04:27:44.825Z,37.45
2022-10-27T04:30:11.712Z,15.88
2022-10-27T04:32:38.211Z,19.43
2022-10-27T04:35:05.918Z,19.17
2022-10-27T04:37:34.016Z,12.68
2022-10-27T04:40:00.796Z,15.48
2022-10-27T04:42:27.188Z,27.00
2022-10-27T04:44:53.672Z,12.90
2022-10-27T04:47:20.056Z,25.83
2022-10-27T04:49:46.616Z,31.00
2022-10-27T04:54:44.902Z,39.08
2022-10-27T04:57:11.502Z,21.27
2022-10-27T04:59:37.929Z,17.48
2022-10-27T05:02:04.506Z,14.98
2022-10-27T05:04:30.904Z,8.55
2022-10-27T05:06:57.415Z,15.23
2022-10-27T05:09:23.785Z,28.50
2022-10-27T05:11:50.260Z,15.30
2022-10-27T05:14:16.712Z,17.30
2022-10-27T05:16:43.064Z,12.45
2022-10-27T05:19:09.423Z,8.07
2022-10-27T05:21:35.843Z,13.50
2022-10-27T05:24:02.303Z,11.23
2022-10-27T05:26:29.429Z,8.55
2022-10-27T05:28:57.370Z,12.65
2022-10-27T05:31:23.739Z,8.13
2022-10-27T05:33:50.172Z,17.17
2022-10-27T05:36:16.588Z,32.38
2022-10-27T05:38:45.803Z,41.45
2022-10-27T05:41:12.190Z,28.67
2022-10-27T05:43:41.527Z,33.08
2022-10-27T05:46:09.025Z,26.97
2022-10-27T05:48:38.209Z,33.38
2022-10-27T05:51:08.074Z,25.50
2022-10-27T05:53:34.435Z,20.35
2022-10-27T05:56:01.018Z,28.38
2022-10-27T05:58:27.366Z,16.33
2022-10-27T06:00:58.750Z,51.95
2022-10-27T06:03:26.005Z,12.32
2022-10-27T06:05:53.440Z,15.30
2022-10-27T06:08:20.709Z,21.80
2022-10-27T06:10:48.008Z,34.40
2022-10-27T06:13:14.749Z,25.88
2022-10-27T06:18:11.325Z,11.18
2022-10-27T06:20:37.743Z,14.27
2022-10-27T06:23:05.714Z,19.07
2022-10-27T06:25:32.120Z,15.27
2022-10-27T06:27:58.703Z,20.55
2022-10-27T06:30:25.191Z,23.98
2022-10-27T06:32:52.003Z,11.27
2022-10-27T06:35:19.645Z,31.27
2022-10-27T06:37:46.814Z,30.80
2022-10-27T06:40:16.363Z,31.17
2022-10-27T06:43:01.702Z,63.63
2022-10-27T06:45:29.362Z,22.40
2022-10-27T06:47:58.068Z,19.50
2022-10-27T06:50:24.542Z,25.75
2022-10-27T06:52:51.809Z,31.88
2022-10-27T06:55:19.093Z,23.10
2022-10-27T06:57:45.464Z,41.00
2022-10-27T07:00:12.626Z,25.53
2022-10-27T07:02:39.104Z,36.75
2022-10-27T07:05:07.553Z,40.70
2022-10-27T07:07:34.785Z,41.60
2022-10-27T07:10:01.178Z,33.38
2022-10-27T07:12:27.811Z,21.30
2022-10-27T07:14:54.281Z,19.73
2022-10-27T07:19:52.154Z,34.67
2022-10-27T07:22:18.662Z,23.10
2022-10-27T07:24:45.068Z,61.70
2022-10-27T07:27:11.470Z,22.77
2022-10-27T07:29:37.922Z,22.13
2022-10-27T07:32:04.628Z,11.20
2022-10-27T07:34:31.013Z,12.23
2022-10-27T07:36:57.397Z,12.83
2022-10-27T07:39:23.751Z,14.77
2022-10-27T07:41:50.115Z,11.27
2022-10-27T07:44:16.729Z,12.73
2022-10-27T07:46:43.230Z,42.17
2022-10-27T07:49:09.622Z,29.30
2022-10-27T07:51:36.075Z,19.55
2022-10-27T07:54:02.612Z,18.23
2022-10-27T07:56:29.079Z,16.80
2022-10-27T07:58:55.486Z,23.23
2022-10-27T08:01:22.022Z,12.97
2022-10-27T08:03:51.120Z,16.52
2022-10-27T08:06:17.954Z,13.52
2022-10-27T08:08:44.433Z,15.13
2022-10-27T08:11:10.827Z,15.98
2022-10-27T08:13:37.182Z,19.43
2022-10-27T08:16:03.636Z,42.08
2022-10-27T08:18:30.003Z,17.60
2022-10-27T08:20:56.465Z,13.45
2022-10-27T08:23:25.508Z,20.02
2022-10-27T08:25:52.844Z,9.07
2022-10-27T08:28:19.388Z,9.38
2022-10-27T08:30:52.316Z,7.65
2022-10-27T08:33:22.488Z,8.27
2022-10-27T08:35:50.607Z,8.82
2022-10-27T08:38:18.319Z,8.70
2022-10-27T08:41:07.745Z,7.30
2022-10-27T08:43:46.001Z,8.02
2022-10-27T08:46:31.041Z,5.60
2022-10-27T08:49:05.279Z,5.70
2022-10-27T08:51:35.060Z,6.53
2022-10-27T08:54:04.385Z,5.05
2022-10-27T08:56:39.213Z,6.28
2022-10-27T08:59:05.916Z,6.25
2022-10-27T09:01:49.820Z,6.22
2022-10-27T09:04:28.870Z,5.80
2022-10-27T09:07:16.721Z,4.40
2022-10-27T09:09:52.410Z,6.38
2022-10-27T09:12:26.536Z,4.93
2022-10-27T09:15:15.813Z,8.02
2022-10-27T09:17:49.047Z,7.93
2022-10-27T09:20:35.237Z,7.85
2022-10-27T09:23:06.786Z,5.70
2022-10-27T09:25:38.379Z,5.88
2022-10-27T09:28:05.911Z,5.93
2022-10-27T09:30:35.406Z,5.43
2022-10-27T09:33:01.845Z,4.97
2022-10-27T09:35:31.626Z,5.82
2022-10-27T09:37:59.636Z,4.70
2022-10-27T09:40:28.752Z,6.00
2022-10-27T09:42:56.604Z,5.67
2022-10-27T09:45:25.457Z,8.55
2022-10-27T09:47:56.519Z,5.68
2022-10-27T09:50:26.216Z,5.82
2022-10-27T09:52:55.141Z,4.78
2022-10-27T09:55:21.849Z,3.60
2022-10-27T09:57:50.046Z,7.28
2022-10-27T10:00:16.740Z,5.70
2022-10-27T10:02:54.514Z,6.55
2022-10-27T10:05:27.047Z,5.05
2022-10-27T10:08:16.674Z,6.63
2022-10-27T10:11:02.581Z,7.65
2022-10-27T10:13:30.923Z,7.15
2022-10-27T10:16:12.797Z,5.60
2022-10-27T10:18:41.126Z,5.90
2022-10-27T10:21:10.714Z,6.60
2022-10-27T10:23:57.874Z,6.47
2022-10-27T10:26:29.532Z,6.65
2022-10-27T10:29:06.928Z,8.40
2022-10-27T10:31:33.545Z,5.82
2022-10-27T10:34:05.012Z,5.43
2022-10-27T10:36:39.776Z,5.20
2022-10-27T10:39:29.936Z,6.20
2022-10-27T10:42:17.531Z,9.13
2022-10-27T10:44:47.988Z,5.43
2022-10-27T10:47:29.544Z,5.50
2022-10-27T10:50:02.113Z,6.28
2022-10-27T10:52:38.192Z,7.90
2022-10-27T10:55:18.283Z,5.55
2022-10-27T10:57:46.332Z,7.10
2022-10-27T11:00:17.796Z,10.07
2022-10-27T11:02:59.253Z,5.18
2022-10-27T11:05:32.003Z,7.78
2022-10-27T11:07:59.143Z,7.00
2022-10-27T11:10:28.208Z,5.32
2022-10-27T11:13:00.432Z,6.03
2022-10-27T11:15:42.724Z,7.32
2022-10-27T11:18:12.137Z,6.35
2022-10-27T11:20:38.785Z,5.95
2022-10-27T11:23:28.412Z,5.72
2022-10-27T11:25:58.361Z,8.13
2022-10-27T11:28:44.566Z,6.32
2022-10-27T11:31:24.352Z,6.75
2022-10-27T11:34:16.883Z,5.07
2022-10-27T11:36:59.343Z,9.05
2022-10-27T11:39:43.627Z,7.17
2022-10-27T11:42:30.500Z,5.43
2022-10-27T11:45:35.358Z,6.05
2022-10-27T11:48:13.407Z,5.75
2022-10-27T11:50:53.679Z,6.15
2022-10-27T11:53:20.273Z,8.90
2022-10-27T11:56:18.805Z,5.45
2022-10-27T11:58:51.945Z,7.18
2022-10-27T12:01:49.028Z,12.07
2022-10-27T12:04:39.947Z,8.52
2022-10-27T12:07:28.758Z,7.87
2022-10-27T12:10:10.355Z,5.45
2022-10-27T12:12:44.885Z,8.32
2022-10-27T12:15:35.586Z,9.43
2022-10-27T12:18:13.443Z,7.72
2022-10-27T12:20:51.709Z,7.13
2022-10-27T12:23:24.409Z,6.70
2022-10-27T12:26:11.774Z,5.78
2022-10-27T12:28:38.762Z,12.85
2022-10-27T12:31:12.512Z,9.93
2022-10-27T12:33:48.066Z,8.43
2022-10-27T12:36:20.531Z,6.75
2022-10-27T12:38:58.908Z,6.57
2022-10-27T12:41:31.675Z,10.02
2022-10-27T12:44:43.164Z,7.82
2022-10-27T12:47:35.991Z,6.00
2022-10-27T12:50:29.453Z,9.55
2022-10-27T12:53:13.087Z,12.05
2022-10-27T12:55:53.365Z,6.53
2022-10-27T12:58:52.770Z,9.52
2022-10-27T13:01:39.342Z,11.27
2022-10-27T13:04:20.724Z,9.57
2022-10-27T13:07:16.395Z,10.27
2022-10-27T13:09:54.435Z,5.68
2022-10-27T13:12:28.195Z,8.32
2022-10-27T13:15:11.791Z,8.50
2022-10-27T13:17:57.099Z,7.75
2022-10-27T13:20:55.111Z,8.38
2022-10-27T13:23:34.528Z,8.40
2022-10-27T13:26:20.306Z,7.53
2022-10-27T13:28:56.273Z,7.77
2022-10-27T13:31:24.510Z,4.70
2022-10-27T13:34:09.503Z,10.73
2022-10-27T13:36:37.447Z,6.82
2022-10-27T13:39:16.400Z,9.77
2022-10-27T13:41:56.010Z,6.97
2022-10-27T13:44:39.699Z,8.68
2022-10-27T13:47:12.135Z,7.70
2022-10-27T13:49:41.383Z,7.63
2022-10-27T13:52:16.846Z,8.55
2022-10-27T13:54:58.375Z,9.77
2022-10-27T13:58:00.617Z,7.63
2022-10-27T14:01:05.090Z,6.63
2022-10-27T14:06:09.990Z,8.40
2022-10-27T14:08:48.931Z,9.27
2022-10-27T14:11:24.939Z,8.88
2022-10-27T14:13:55.831Z,8.05
2022-10-27T14:16:26.591Z,7.03
2022-10-27T14:19:12.510Z,6.85
2022-10-27T14:21:48.922Z,11.53
2022-10-27T14:24:21.250Z,8.25
2022-10-27T14:26:47.759Z,11.57
2022-10-27T14:29:23.776Z,10.60
2022-10-27T14:31:50.275Z,7.78
2022-10-27T14:34:22.528Z,7.23
2022-10-27T14:36:49.978Z,8.00
2022-10-27T14:39:22.417Z,7.60
2022-10-27T14:41:50.529Z,8.48
2022-10-27T14:44:27.418Z,7.97
2022-10-27T14:47:00.028Z,7.93
2022-10-27T14:49:37.235Z,10.25
2022-10-27T14:52:08.129Z,7.22
2022-10-27T14:54:34.623Z,6.50
2022-10-27T14:57:28.942Z,8.23
2022-10-27T14:59:55.363Z,8.97
2022-10-27T15:02:23.145Z,7.90
2022-10-27T15:04:49.573Z,6.28
2022-10-27T15:07:20.073Z,7.10
2022-10-27T15:09:52.783Z,9.52
2022-10-27T15:12:21.225Z,9.43
2022-10-27T15:14:48.125Z,8.43
2022-10-27T15:17:23.220Z,8.95
2022-10-27T15:19:56.436Z,8.52
2022-10-27T15:22:23.855Z,10.18
2022-10-27T15:24:50.737Z,8.80
2022-10-27T15:27:17.729Z,8.85
2022-10-27T15:29:46.027Z,9.10
2022-10-27T15:32:21.882Z,6.88
2022-10-27T15:34:49.126Z,9.98
2022-10-27T15:37:26.238Z,10.43
2022-10-27T15:39:54.021Z,11.02
2022-10-27T15:42:23.914Z,8.35
2022-10-27T15:44:50.788Z,7.60
2022-10-27T15:47:42.705Z,7.53
2022-10-27T15:50:24.389Z,12.83
2022-10-27T15:52:54.035Z,9.55
2022-10-27T15:55:23.584Z,8.95
2022-10-27T15:57:50.487Z,9.90
2022-10-27T16:00:24.756Z,10.02
2022-10-27T16:02:59.306Z,11.60
2022-10-27T16:05:31.611Z,8.75
2022-10-27T16:07:59.401Z,12.02
2022-10-27T16:10:27.937Z,10.00
2022-10-27T16:12:55.693Z,9.65
2022-10-27T16:15:25.229Z,13.43
2022-10-27T16:17:54.770Z,12.25
2022-10-27T16:20:33.891Z,12.65
2022-10-27T16:23:01.455Z,13.32
2022-10-27T16:25:30.377Z,9.20
2022-10-27T16:27:57.510Z,10.63
2022-10-27T16:30:23.977Z,10.73
2022-10-27T16:33:04.169Z,15.05
2022-10-27T16:35:33.978Z,12.05
2022-10-27T16:38:01.129Z,10.38
2022-10-27T16:40:27.961Z,11.60
2022-10-27T16:42:58.147Z,11.82
2022-10-27T16:45:24.743Z,14.75
2022-10-27T16:47:52.479Z,10.85
2022-10-27T16:50:19.340Z,13.57
2022-10-27T16:52:51.701Z,8.87
2022-10-27T16:55:18.134Z,14.15
2022-10-27T16:57:48.744Z,10.20
2022-10-27T17:00:16.630Z,11.77
2022-10-27T17:02:43.013Z,11.25
2022-10-27T17:05:09.620Z,15.10
2022-10-27T17:07:39.223Z,10.32
2022-10-27T17:10:06.406Z,11.27
2022-10-27T17:12:33.034Z,12.02
2022-10-27T17:14:59.387Z,13.88
2022-10-27T17:17:25.772Z,13.70
2022-10-27T17:19:52.225Z,12.05
2022-10-27T17:22:18.617Z,12.63
2022-10-27T17:24:45.023Z,12.18
2022-10-27T17:27:11.652Z,13.43
2022-10-27T17:29:38.106Z,11.97
2022-10-27T17:32:04.643Z,11.50
2022-10-27T17:34:32.130Z,13.90
2022-10-27T17:36:59.323Z,14.18
2022-10-27T17:39:25.681Z,12.15
2022-10-27T17:41:52.067Z,17.77
2022-10-27T17:44:18.658Z,10.20
2022-10-27T17:46:45.067Z,12.13
2022-10-27T17:49:11.488Z,12.98
2022-10-27T17:51:38.059Z,11.35
2022-10-27T17:54:04.523Z,11.57
2022-10-27T17:56:33.437Z,13.07
2022-10-27T17:59:00.076Z,15.88
2022-10-27T18:01:31.901Z,10.50
2022-10-27T18:04:06.924Z,11.45
2022-10-27T18:06:34.037Z,10.20
2022-10-27T18:09:02.288Z,13.25
2022-10-27T18:11:32.027Z,20.92
2022-10-27T18:14:03.362Z,15.15
2022-10-27T18:16:32.699Z,13.57
2022-10-27T18:19:03.822Z,13.13
2022-10-27T18:21:32.187Z,12.65
2022-10-27T18:24:00.292Z,17.13
2022-10-27T18:26:28.234Z,15.80
2022-10-27T18:28:54.950Z,13.15
2022-10-27T18:31:24.210Z,15.07
2022-10-27T18:33:50.989Z,14.05
2022-10-27T18:36:20.285Z,14.00
2022-10-27T18:38:47.323Z,10.95
2022-10-27T18:41:16.021Z,12.70
2022-10-27T18:43:46.793Z,15.20
2022-10-27T18:46:14.606Z,14.00
2022-10-27T18:48:41.240Z,17.80
2022-10-27T18:51:12.726Z,13.35
2022-10-27T18:53:39.430Z,25.25
2022-10-27T18:56:08.313Z,12.43
2022-10-27T18:58:36.310Z,15.48
2022-10-27T19:01:11.529Z,12.48
2022-10-27T19:03:38.779Z,12.20
2022-10-27T19:06:07.705Z,12.35
2022-10-27T19:08:34.726Z,10.77
2022-10-27T19:11:06.713Z,14.88
2022-10-27T19:13:34.864Z,13.52
2022-10-27T19:16:06.846Z,22.73
2022-10-27T19:18:33.771Z,31.08
2022-10-27T19:21:02.434Z,16.37
2022-10-27T19:23:30.017Z,11.32
2022-10-27T19:26:05.089Z,11.68
2022-10-27T19:28:32.478Z,14.90
2022-10-27T19:30:58.864Z,14.45
2022-10-27T19:33:25.701Z,14.27
2022-10-27T19:35:53.685Z,12.80
2022-10-27T19:38:21.351Z,14.30
2022-10-27T19:40:47.879Z,10.38
2022-10-27T19:43:14.411Z,15.60
2022-10-27T19:45:48.142Z,16.20
2022-10-27T19:48:17.412Z,10.55
2022-10-27T19:50:44.263Z,14.68
2022-10-27T19:53:11.499Z,10.10
2022-10-27T19:55:38.025Z,11.93
2022-10-27T19:58:04.534Z,12.67
2022-10-27T20:00:31.016Z,14.15
2022-10-27T20:02:58.046Z,13.48
2022-10-27T20:05:24.509Z,14.50
2022-10-27T20:07:51.910Z,13.70
2022-10-27T20:10:19.247Z,15.03
2022-10-27T20:12:45.755Z,13.20
2022-10-27T20:15:12.772Z,10.88
2022-10-27T20:17:39.374Z,14.88
2022-10-27T20:20:07.123Z,11.40
2022-10-27T20:22:33.516Z,16.80
2022-10-27T20:24:59.889Z,18.67
2022-10-27T20:27:29.282Z,15.50
2022-10-27T20:29:55.780Z,13.20
2022-10-27T20:32:23.752Z,16.30
2022-10-27T20:34:50.216Z,12.73
2022-10-27T20:37:16.686Z,23.45
2022-10-27T20:39:43.105Z,15.95
2022-10-27T20:42:09.565Z,14.05
2022-10-27T20:44:35.937Z,16.77
2022-10-27T20:47:02.424Z,12.97
2022-10-27T20:49:28.779Z,12.45
2022-10-27T20:51:55.177Z,16.73
2022-10-27T20:54:21.529Z,14.85
2022-10-27T20:56:49.109Z,16.95
2022-10-27T20:59:19.981Z,18.17
2022-10-27T21:01:49.165Z,18.80
2022-10-27T21:04:21.934Z,12.95
2022-10-27T21:06:50.447Z,38.17
2022-10-27T21:09:19.056Z,31.70
2022-10-27T21:11:46.815Z,17.77
2022-10-27T21:14:13.608Z,15.90
2022-10-27T21:16:40.511Z,16.35
2022-10-27T21:19:09.325Z,18.73
2022-10-27T21:21:36.321Z,12.90
2022-10-27T21:24:03.950Z,13.53
2022-10-27T21:26:30.453Z,16.67
2022-10-27T21:28:58.466Z,18.00
2022-10-27T21:31:28.620Z,18.30
2022-10-27T21:33:55.776Z,14.50
2022-10-27T21:36:22.348Z,12.77
2022-10-27T21:38:50.436Z,12.45
2022-10-27T21:41:19.765Z,14.57
2022-10-27T21:43:49.600Z,13.63
2022-10-27T21:46:19.218Z,19.08
2022-10-27T21:48:46.073Z,11.27
2022-10-27T21:51:14.189Z,14.05
2022-10-27T21:53:41.346Z,12.15
2022-10-27T21:56:09.967Z,12.95
2022-10-27T21:58:37.043Z,9.93
2022-10-27T22:01:22.250Z,12.73
2022-10-27T22:03:48.779Z,13.90
2022-10-27T22:06:16.555Z,12.55
2022-10-27T22:08:43.729Z,10.65
2022-10-27T22:11:15.126Z,11.95
2022-10-27T22:13:42.051Z,11.80
2022-10-27T22:16:10.804Z,10.95
2022-10-27T22:18:38.135Z,16.10
2022-10-27T22:21:05.923Z,13.23
2022-10-27T22:23:33.688Z,11.13
2022-10-27T22:26:26.938Z,12.57
2022-10-27T22:28:54.015Z,11.93
2022-10-27T22:31:23.441Z,8.85
2022-10-27T22:33:51.130Z,9.50
2022-10-27T22:36:19.087Z,13.68
2022-10-27T22:38:46.012Z,13.53
2022-10-27T22:41:16.249Z,16.05
2022-10-27T22:43:44.132Z,13.35
2022-10-27T22:46:16.698Z,15.73
2022-10-27T22:48:43.091Z,10.63
2022-10-27T22:51:14.250Z,13.07
2022-10-27T22:53:42.073Z,12.52
2022-10-27T22:56:12.931Z,10.85
2022-10-27T22:58:39.807Z,8.90
2022-10-27T23:01:08.785Z,9.75
2022-10-27T23:03:35.875Z,13.07
2022-10-27T23:06:03.287Z,12.48
2022-10-27T23:08:30.289Z,10.07
2022-10-27T23:10:58.650Z,7.25
2022-10-27T23:13:26.509Z,12.73
2022-10-27T23:15:54.661Z,12.60
2022-10-27T23:18:21.253Z,12.85
2022-10-27T23:20:47.701Z,10.82
2022-10-27T23:23:14.133Z,9.32
2022-10-27T23:25:40.565Z,11.25
2022-10-27T23:28:07.206Z,11.80
2022-10-27T23:30:33.967Z,10.60
2022-10-27T23:33:00.416Z,12.75
2022-10-27T23:35:26.762Z,10.77
2022-10-27T23:37:53.388Z,14.55
2022-10-27T23:40:19.884Z,13.43
2022-10-27T23:42:46.398Z,14.35
2022-10-27T23:45:12.899Z,17.83
2022-10-27T23:47:39.336Z,8.95
2022-10-27T23:50:06.096Z,11.38
2022-10-27T23:52:32.635Z,12.50
2022-10-27T23:54:59.262Z,11.35
2022-10-27T23:57:25.649Z,10.63
2022-10-27T23:59:52.152Z,10.60
